sensor_id;sensor_type;location;lat;lon;timestamp;P1;durP1;ratioP1;P2;durP2;ratioP2
71734;SDS011;59577;52.122;5.406;2022-08-21T00:00:40;1.13;;;0.70;;
71734;SDS011;59577;52.122;5.406;2022-08-21T00:03:10;2.08;;;0.88;;
71734;SDS011;59577;52.122;5.406;2022-08-21T00:05:39;2.92;;;0.75;;
71734;SDS011;59577;52.122;5.406;2022-08-21T00:08:11;2.17;;;0.90;;
71734;SDS011;59577;52.122;5.406;2022-08-21T00:10:39;1.50;;;0.93;;
71734;SDS011;59577;52.122;5.406;2022-08-21T00:13:07;1.50;;;0.80;;
71734;SDS011;59577;52.122;5.406;2022-08-21T00:15:35;3.03;;;0.70;;
71734;SDS011;59577;52.122;5.406;2022-08-21T00:18:03;3.42;;;0.88;;
71734;SDS011;59577;52.122;5.406;2022-08-21T00:20:31;2.72;;;0.88;;
71734;SDS011;59577;52.122;5.406;2022-08-21T00:22:59;2.70;;;0.80;;
71734;SDS011;59577;52.122;5.406;2022-08-21T00:25:26;3.53;;;1.13;;
71734;SDS011;59577;52.122;5.406;2022-08-21T00:27:53;2.25;;;0.90;;
71734;SDS011;59577;52.122;5.406;2022-08-21T00:30:21;2.13;;;1.15;;
71734;SDS011;59577;52.122;5.406;2022-08-21T00:32:49;2.40;;;1.10;;
71734;SDS011;59577;52.122;5.406;2022-08-21T00:35:24;2.17;;;0.97;;
71734;SDS011;59577;52.122;5.406;2022-08-21T00:37:52;4.53;;;0.93;;
71734;SDS011;59577;52.122;5.406;2022-08-21T00:40:20;1.85;;;1.20;;
71734;SDS011;59577;52.122;5.406;2022-08-21T00:42:50;2.35;;;0.90;;
71734;SDS011;59577;52.122;5.406;2022-08-21T00:45:19;2.15;;;0.98;;
71734;SDS011;59577;52.122;5.406;2022-08-21T00:47:47;1.90;;;0.70;;
71734;SDS011;59577;52.122;5.406;2022-08-21T00:50:13;2.05;;;1.10;;
71734;SDS011;59577;52.122;5.406;2022-08-21T00:52:47;1.83;;;1.00;;
71734;SDS011;59577;52.122;5.406;2022-08-21T00:55:17;1.40;;;0.88;;
71734;SDS011;59577;52.122;5.406;2022-08-21T00:57:50;1.42;;;0.60;;
71734;SDS011;59577;52.122;5.406;2022-08-21T01:00:19;1.83;;;0.80;;
71734;SDS011;59577;52.122;5.406;2022-08-21T01:02:54;1.38;;;0.70;;
71734;SDS011;59577;52.122;5.406;2022-08-21T01:05:23;2.88;;;1.00;;
71734;SDS011;59577;52.122;5.406;2022-08-21T01:07:50;1.75;;;0.93;;
71734;SDS011;59577;52.122;5.406;2022-08-21T01:10:17;1.70;;;0.90;;
71734;SDS011;59577;52.122;5.406;2022-08-21T01:12:51;3.53;;;1.00;;
71734;SDS011;59577;52.122;5.406;2022-08-21T01:15:19;3.65;;;1.00;;
71734;SDS011;59577;52.122;5.406;2022-08-21T01:17:49;1.80;;;1.00;;
71734;SDS011;59577;52.122;5.406;2022-08-21T01:20:15;1.50;;;0.90;;
71734;SDS011;59577;52.122;5.406;2022-08-21T01:22:42;1.58;;;0.80;;
71734;SDS011;59577;52.122;5.406;2022-08-21T01:25:10;3.00;;;0.93;;
71734;SDS011;59577;52.122;5.406;2022-08-21T01:27:38;1.38;;;0.90;;
71734;SDS011;59577;52.122;5.406;2022-08-21T01:30:09;1.58;;;0.80;;
71734;SDS011;59577;52.122;5.406;2022-08-21T01:32:39;3.42;;;1.00;;
71734;SDS011;59577;52.122;5.406;2022-08-21T01:35:06;2.85;;;1.30;;
71734;SDS011;59577;52.122;5.406;2022-08-21T01:37:34;3.73;;;1.83;;
71734;SDS011;59577;52.122;5.406;2022-08-21T01:40:02;4.10;;;1.30;;
71734;SDS011;59577;52.122;5.406;2022-08-21T01:42:30;1.88;;;0.90;;
71734;SDS011;59577;52.122;5.406;2022-08-21T01:44:57;3.90;;;1.08;;
71734;SDS011;59577;52.122;5.406;2022-08-21T01:47:23;1.75;;;1.05;;
71734;SDS011;59577;52.122;5.406;2022-08-21T01:49:50;0.97;;;0.80;;
71734;SDS011;59577;52.122;5.406;2022-08-21T01:52:17;2.20;;;1.58;;
71734;SDS011;59577;52.122;5.406;2022-08-21T01:54:44;3.55;;;1.00;;
71734;SDS011;59577;52.122;5.406;2022-08-21T01:57:20;1.30;;;0.57;;
71734;SDS011;59577;52.122;5.406;2022-08-21T01:59:48;1.60;;;0.90;;
71734;SDS011;59577;52.122;5.406;2022-08-21T02:02:15;4.10;;;0.90;;
71734;SDS011;59577;52.122;5.406;2022-08-21T02:04:41;2.28;;;0.68;;
71734;SDS011;59577;52.122;5.406;2022-08-21T02:07:10;3.38;;;0.90;;
71734;SDS011;59577;52.122;5.406;2022-08-21T02:09:37;1.35;;;0.77;;
71734;SDS011;59577;52.122;5.406;2022-08-21T02:12:05;2.30;;;0.90;;
71734;SDS011;59577;52.122;5.406;2022-08-21T02:14:32;2.50;;;0.70;;
71734;SDS011;59577;52.122;5.406;2022-08-21T02:16:58;2.30;;;1.05;;
71734;SDS011;59577;52.122;5.406;2022-08-21T02:19:35;2.33;;;0.85;;
71734;SDS011;59577;52.122;5.406;2022-08-21T02:22:06;2.40;;;0.90;;
71734;SDS011;59577;52.122;5.406;2022-08-21T02:24:33;3.53;;;1.40;;
71734;SDS011;59577;52.122;5.406;2022-08-21T02:27:03;1.37;;;0.70;;
71734;SDS011;59577;52.122;5.406;2022-08-21T02:29:30;3.28;;;1.50;;
71734;SDS011;59577;52.122;5.406;2022-08-21T02:31:56;2.15;;;1.10;;
71734;SDS011;59577;52.122;5.406;2022-08-21T02:34:23;2.10;;;0.85;;
71734;SDS011;59577;52.122;5.406;2022-08-21T02:36:54;2.08;;;0.98;;
71734;SDS011;59577;52.122;5.406;2022-08-21T02:39:25;2.47;;;0.90;;
71734;SDS011;59577;52.122;5.406;2022-08-21T02:41:52;2.97;;;1.02;;
71734;SDS011;59577;52.122;5.406;2022-08-21T02:44:19;2.63;;;0.95;;
71734;SDS011;59577;52.122;5.406;2022-08-21T02:46:55;1.35;;;1.00;;
71734;SDS011;59577;52.122;5.406;2022-08-21T02:49:21;1.67;;;0.82;;
71734;SDS011;59577;52.122;5.406;2022-08-21T02:51:48;2.50;;;0.87;;
71734;SDS011;59577;52.122;5.406;2022-08-21T02:54:15;3.55;;;1.05;;
71734;SDS011;59577;52.122;5.406;2022-08-21T02:56:41;4.43;;;1.10;;
71734;SDS011;59577;52.122;5.406;2022-08-21T02:59:08;2.17;;;0.88;;
71734;SDS011;59577;52.122;5.406;2022-08-21T03:01:34;2.38;;;1.10;;
71734;SDS011;59577;52.122;5.406;2022-08-21T03:04:01;2.50;;;1.13;;
71734;SDS011;59577;52.122;5.406;2022-08-21T03:06:28;2.50;;;1.42;;
71734;SDS011;59577;52.122;5.406;2022-08-21T03:08:55;1.75;;;0.85;;
71734;SDS011;59577;52.122;5.406;2022-08-21T03:11:23;1.77;;;1.00;;
71734;SDS011;59577;52.122;5.406;2022-08-21T03:13:50;2.15;;;0.98;;
71734;SDS011;59577;52.122;5.406;2022-08-21T03:16:16;2.97;;;1.10;;
71734;SDS011;59577;52.122;5.406;2022-08-21T03:18:44;1.67;;;1.00;;
71734;SDS011;59577;52.122;5.406;2022-08-21T03:21:11;1.27;;;0.75;;
71734;SDS011;59577;52.122;5.406;2022-08-21T03:23:39;1.20;;;0.60;;
71734;SDS011;59577;52.122;5.406;2022-08-21T03:26:06;1.70;;;0.68;;
71734;SDS011;59577;52.122;5.406;2022-08-21T03:28:34;2.27;;;1.00;;
71734;SDS011;59577;52.122;5.406;2022-08-21T03:31:00;1.27;;;0.90;;
71734;SDS011;59577;52.122;5.406;2022-08-21T03:33:27;2.80;;;0.85;;
71734;SDS011;59577;52.122;5.406;2022-08-21T03:36:01;3.47;;;0.90;;
71734;SDS011;59577;52.122;5.406;2022-08-21T03:38:31;2.28;;;1.10;;
71734;SDS011;59577;52.122;5.406;2022-08-21T03:40:59;1.67;;;0.80;;
71734;SDS011;59577;52.122;5.406;2022-08-21T03:43:27;2.70;;;1.00;;
71734;SDS011;59577;52.122;5.406;2022-08-21T03:45:57;2.85;;;0.73;;
71734;SDS011;59577;52.122;5.406;2022-08-21T03:48:24;1.80;;;0.90;;
71734;SDS011;59577;52.122;5.406;2022-08-21T03:50:51;2.78;;;0.80;;
71734;SDS011;59577;52.122;5.406;2022-08-21T03:53:18;2.20;;;0.90;;
71734;SDS011;59577;52.122;5.406;2022-08-21T03:55:45;3.88;;;1.20;;
71734;SDS011;59577;52.122;5.406;2022-08-21T03:58:18;4.20;;;1.00;;
71734;SDS011;59577;52.122;5.406;2022-08-21T04:00:47;3.20;;;1.08;;
71734;SDS011;59577;52.122;5.406;2022-08-21T04:03:17;2.78;;;1.42;;
71734;SDS011;59577;52.122;5.406;2022-08-21T04:05:44;2.63;;;1.30;;
71734;SDS011;59577;52.122;5.406;2022-08-21T04:08:12;2.83;;;1.55;;
71734;SDS011;59577;52.122;5.406;2022-08-21T04:10:40;5.15;;;1.58;;
71734;SDS011;59577;52.122;5.406;2022-08-21T04:13:10;4.00;;;1.40;;
71734;SDS011;59577;52.122;5.406;2022-08-21T04:15:37;1.98;;;1.10;;
71734;SDS011;59577;52.122;5.406;2022-08-21T04:18:04;2.87;;;1.30;;
71734;SDS011;59577;52.122;5.406;2022-08-21T04:20:32;4.20;;;0.88;;
71734;SDS011;59577;52.122;5.406;2022-08-21T04:22:59;2.03;;;1.25;;
71734;SDS011;59577;52.122;5.406;2022-08-21T04:25:26;4.50;;;1.30;;
71734;SDS011;59577;52.122;5.406;2022-08-21T04:27:53;1.30;;;0.90;;
71734;SDS011;59577;52.122;5.406;2022-08-21T04:30:20;2.97;;;1.20;;
71734;SDS011;59577;52.122;5.406;2022-08-21T04:32:53;2.08;;;1.13;;
71734;SDS011;59577;52.122;5.406;2022-08-21T04:35:22;2.25;;;0.90;;
71734;SDS011;59577;52.122;5.406;2022-08-21T04:37:49;3.42;;;1.15;;
71734;SDS011;59577;52.122;5.406;2022-08-21T04:40:17;2.65;;;0.90;;
71734;SDS011;59577;52.122;5.406;2022-08-21T04:42:46;4.17;;;1.30;;
71734;SDS011;59577;52.122;5.406;2022-08-21T04:45:16;4.57;;;1.30;;
71734;SDS011;59577;52.122;5.406;2022-08-21T04:47:55;2.20;;;1.23;;
71734;SDS011;59577;52.122;5.406;2022-08-21T04:50:26;2.92;;;0.90;;
71734;SDS011;59577;52.122;5.406;2022-08-21T04:52:57;2.92;;;0.88;;
71734;SDS011;59577;52.122;5.406;2022-08-21T04:55:24;1.87;;;1.20;;
71734;SDS011;59577;52.122;5.406;2022-08-21T04:57:54;3.33;;;0.93;;
71734;SDS011;59577;52.122;5.406;2022-08-21T05:00:23;1.52;;;1.15;;
71734;SDS011;59577;52.122;5.406;2022-08-21T05:02:58;1.80;;;1.15;;
71734;SDS011;59577;52.122;5.406;2022-08-21T05:05:28;2.33;;;1.33;;
71734;SDS011;59577;52.122;5.406;2022-08-21T05:07:59;2.67;;;1.13;;
71734;SDS011;59577;52.122;5.406;2022-08-21T05:10:28;3.70;;;2.03;;
71734;SDS011;59577;52.122;5.406;2022-08-21T05:12:57;6.05;;;2.40;;
71734;SDS011;59577;52.122;5.406;2022-08-21T05:15:26;3.08;;;2.17;;
71734;SDS011;59577;52.122;5.406;2022-08-21T05:17:52;5.03;;;2.03;;
71734;SDS011;59577;52.122;5.406;2022-08-21T05:20:26;3.50;;;2.30;;
71734;SDS011;59577;52.122;5.406;2022-08-21T05:22:53;4.35;;;2.25;;
71734;SDS011;59577;52.122;5.406;2022-08-21T05:25:20;5.30;;;2.33;;
71734;SDS011;59577;52.122;5.406;2022-08-21T05:27:48;5.90;;;2.28;;
71734;SDS011;59577;52.122;5.406;2022-08-21T05:30:17;3.88;;;1.83;;
71734;SDS011;59577;52.122;5.406;2022-08-21T05:32:45;5.40;;;1.80;;
71734;SDS011;59577;52.122;5.406;2022-08-21T05:35:13;4.80;;;1.83;;
71734;SDS011;59577;52.122;5.406;2022-08-21T05:37:40;3.15;;;2.00;;
71734;SDS011;59577;52.122;5.406;2022-08-21T05:40:06;4.05;;;1.98;;
71734;SDS011;59577;52.122;5.406;2022-08-21T05:42:48;5.70;;;2.38;;
71734;SDS011;59577;52.122;5.406;2022-08-21T05:45:21;3.10;;;2.10;;
71734;SDS011;59577;52.122;5.406;2022-08-21T05:48:08;3.83;;;2.10;;
71734;SDS011;59577;52.122;5.406;2022-08-21T05:50:36;4.82;;;2.00;;
71734;SDS011;59577;52.122;5.406;2022-08-21T05:53:04;8.10;;;2.28;;
71734;SDS011;59577;52.122;5.406;2022-08-21T05:55:32;5.82;;;2.42;;
71734;SDS011;59577;52.122;5.406;2022-08-21T05:57:59;7.50;;;2.97;;
71734;SDS011;59577;52.122;5.406;2022-08-21T06:00:26;12.73;;;3.00;;
71734;SDS011;59577;52.122;5.406;2022-08-21T06:02:52;10.35;;;3.70;;
71734;SDS011;59577;52.122;5.406;2022-08-21T06:05:19;6.07;;;3.08;;
71734;SDS011;59577;52.122;5.406;2022-08-21T06:08:02;5.07;;;3.30;;
71734;SDS011;59577;52.122;5.406;2022-08-21T06:10:28;9.00;;;3.17;;
71734;SDS011;59577;52.122;5.406;2022-08-21T06:12:55;5.05;;;2.90;;
71734;SDS011;59577;52.122;5.406;2022-08-21T06:15:21;8.23;;;3.58;;
71734;SDS011;59577;52.122;5.406;2022-08-21T06:17:48;6.20;;;3.25;;
71734;SDS011;59577;52.122;5.406;2022-08-21T06:20:14;7.32;;;3.20;;
71734;SDS011;59577;52.122;5.406;2022-08-21T06:22:41;6.83;;;2.93;;
71734;SDS011;59577;52.122;5.406;2022-08-21T06:25:07;9.32;;;3.25;;
71734;SDS011;59577;52.122;5.406;2022-08-21T06:27:35;10.15;;;3.10;;
71734;SDS011;59577;52.122;5.406;2022-08-21T06:30:03;9.88;;;2.92;;
71734;SDS011;59577;52.122;5.406;2022-08-21T06:32:31;8.30;;;2.88;;
71734;SDS011;59577;52.122;5.406;2022-08-21T06:34:58;8.63;;;2.90;;
71734;SDS011;59577;52.122;5.406;2022-08-21T06:37:25;4.97;;;2.70;;
71734;SDS011;59577;52.122;5.406;2022-08-21T06:39:51;7.50;;;2.95;;
71734;SDS011;59577;52.122;5.406;2022-08-21T06:42:18;7.60;;;2.80;;
71734;SDS011;59577;52.122;5.406;2022-08-21T06:44:44;9.82;;;2.30;;
71734;SDS011;59577;52.122;5.406;2022-08-21T06:47:14;9.60;;;2.60;;
71734;SDS011;59577;52.122;5.406;2022-08-21T06:49:40;9.00;;;2.63;;
71734;SDS011;59577;52.122;5.406;2022-08-21T06:52:11;8.85;;;3.40;;
71734;SDS011;59577;52.122;5.406;2022-08-21T06:54:39;5.72;;;2.55;;
71734;SDS011;59577;52.122;5.406;2022-08-21T06:57:06;8.85;;;3.13;;
71734;SDS011;59577;52.122;5.406;2022-08-21T06:59:33;7.77;;;3.10;;
71734;SDS011;59577;52.122;5.406;2022-08-21T07:02:00;11.75;;;3.47;;
71734;SDS011;59577;52.122;5.406;2022-08-21T07:04:27;8.48;;;2.75;;
71734;SDS011;59577;52.122;5.406;2022-08-21T07:06:53;10.10;;;3.28;;
71734;SDS011;59577;52.122;5.406;2022-08-21T07:09:20;11.48;;;3.58;;
71734;SDS011;59577;52.122;5.406;2022-08-21T07:11:50;5.77;;;2.67;;
71734;SDS011;59577;52.122;5.406;2022-08-21T07:14:19;6.60;;;2.92;;
71734;SDS011;59577;52.122;5.406;2022-08-21T07:16:46;8.70;;;2.83;;
71734;SDS011;59577;52.122;5.406;2022-08-21T07:19:13;5.63;;;3.05;;
71734;SDS011;59577;52.122;5.406;2022-08-21T07:21:39;5.55;;;2.67;;
71734;SDS011;59577;52.122;5.406;2022-08-21T07:24:06;4.83;;;2.50;;
71734;SDS011;59577;52.122;5.406;2022-08-21T07:26:33;6.65;;;2.85;;
71734;SDS011;59577;52.122;5.406;2022-08-21T07:28:59;13.00;;;2.85;;
71734;SDS011;59577;52.122;5.406;2022-08-21T07:31:26;11.25;;;2.80;;
71734;SDS011;59577;52.122;5.406;2022-08-21T07:33:52;4.00;;;2.00;;
71734;SDS011;59577;52.122;5.406;2022-08-21T07:36:20;5.47;;;2.10;;
71734;SDS011;59577;52.122;5.406;2022-08-21T07:38:46;6.38;;;2.50;;
71734;SDS011;59577;52.122;5.406;2022-08-21T07:41:19;9.52;;;2.60;;
71734;SDS011;59577;52.122;5.406;2022-08-21T07:43:47;5.57;;;2.00;;
71734;SDS011;59577;52.122;5.406;2022-08-21T07:46:18;4.65;;;1.98;;
71734;SDS011;59577;52.122;5.406;2022-08-21T07:48:45;6.20;;;2.33;;
71734;SDS011;59577;52.122;5.406;2022-08-21T07:51:19;8.32;;;2.30;;
71734;SDS011;59577;52.122;5.406;2022-08-21T07:53:51;7.72;;;1.95;;
71734;SDS011;59577;52.122;5.406;2022-08-21T07:56:28;5.82;;;2.22;;
71734;SDS011;59577;52.122;5.406;2022-08-21T07:58:57;9.70;;;2.38;;
71734;SDS011;59577;52.122;5.406;2022-08-21T08:01:26;7.27;;;2.47;;
71734;SDS011;59577;52.122;5.406;2022-08-21T08:03:53;5.65;;;2.20;;
71734;SDS011;59577;52.122;5.406;2022-08-21T08:06:19;6.32;;;2.00;;
71734;SDS011;59577;52.122;5.406;2022-08-21T08:08:46;7.05;;;2.00;;
71734;SDS011;59577;52.122;5.406;2022-08-21T08:11:13;8.25;;;2.38;;
71734;SDS011;59577;52.122;5.406;2022-08-21T08:13:43;3.60;;;2.00;;
71734;SDS011;59577;52.122;5.406;2022-08-21T08:16:11;6.25;;;2.22;;
71734;SDS011;59577;52.122;5.406;2022-08-21T08:18:39;9.88;;;2.30;;
71734;SDS011;59577;52.122;5.406;2022-08-21T08:21:08;6.93;;;2.30;;
71734;SDS011;59577;52.122;5.406;2022-08-21T08:23:35;9.30;;;2.85;;
71734;SDS011;59577;52.122;5.406;2022-08-21T08:26:01;6.63;;;2.10;;
71734;SDS011;59577;52.122;5.406;2022-08-21T08:28:29;7.55;;;2.92;;
71734;SDS011;59577;52.122;5.406;2022-08-21T08:30:58;8.68;;;2.20;;
71734;SDS011;59577;52.122;5.406;2022-08-21T08:33:26;11.40;;;2.63;;
71734;SDS011;59577;52.122;5.406;2022-08-21T08:35:54;6.60;;;2.10;;
71734;SDS011;59577;52.122;5.406;2022-08-21T08:38:21;6.47;;;2.20;;
71734;SDS011;59577;52.122;5.406;2022-08-21T08:41:33;5.93;;;2.22;;
71734;SDS011;59577;52.122;5.406;2022-08-21T08:43:50;6.88;;;2.42;;
71734;SDS011;59577;52.122;5.406;2022-08-21T08:46:26;7.10;;;2.22;;
71734;SDS011;59577;52.122;5.406;2022-08-21T08:49:11;5.57;;;1.80;;
71734;SDS011;59577;52.122;5.406;2022-08-21T08:51:46;6.90;;;2.00;;
71734;SDS011;59577;52.122;5.406;2022-08-21T08:57:16;5.82;;;2.15;;
71734;SDS011;59577;52.122;5.406;2022-08-21T08:59:45;5.85;;;2.10;;
71734;SDS011;59577;52.122;5.406;2022-08-21T09:02:15;5.82;;;2.05;;
71734;SDS011;59577;52.122;5.406;2022-08-21T09:04:43;4.67;;;2.03;;
71734;SDS011;59577;52.122;5.406;2022-08-21T09:12:38;6.70;;;2.13;;
71734;SDS011;59577;52.122;5.406;2022-08-21T09:15:44;6.35;;;1.92;;
71734;SDS011;59577;52.122;5.406;2022-08-21T09:18:25;7.33;;;1.80;;
71734;SDS011;59577;52.122;5.406;2022-08-21T09:26:47;5.45;;;1.92;;
71734;SDS011;59577;52.122;5.406;2022-08-21T09:29:24;9.57;;;2.05;;
71734;SDS011;59577;52.122;5.406;2022-08-21T09:31:56;6.00;;;1.30;;
71734;SDS011;59577;52.122;5.406;2022-08-21T09:34:27;6.32;;;1.60;;
71734;SDS011;59577;52.122;5.406;2022-08-21T09:36:55;6.80;;;2.17;;
71734;SDS011;59577;52.122;5.406;2022-08-21T09:39:30;7.35;;;2.42;;
71734;SDS011;59577;52.122;5.406;2022-08-21T09:42:07;11.73;;;2.85;;
71734;SDS011;59577;52.122;5.406;2022-08-21T09:44:36;5.60;;;1.97;;
71734;SDS011;59577;52.122;5.406;2022-08-21T09:47:07;13.63;;;2.05;;
71734;SDS011;59577;52.122;5.406;2022-08-21T09:49:39;5.38;;;1.52;;
71734;SDS011;59577;52.122;5.406;2022-08-21T09:52:16;2.92;;;1.27;;
71734;SDS011;59577;52.122;5.406;2022-08-21T09:54:45;3.15;;;1.15;;
71734;SDS011;59577;52.122;5.406;2022-08-21T09:57:26;6.60;;;1.97;;
71734;SDS011;59577;52.122;5.406;2022-08-21T10:02:46;4.40;;;1.63;;
71734;SDS011;59577;52.122;5.406;2022-08-21T10:05:17;3.58;;;1.25;;
71734;SDS011;59577;52.122;5.406;2022-08-21T10:07:51;7.57;;;1.30;;
71734;SDS011;59577;52.122;5.406;2022-08-21T10:10:19;7.50;;;1.30;;
71734;SDS011;59577;52.122;5.406;2022-08-21T10:12:57;6.18;;;1.35;;
71734;SDS011;59577;52.122;5.406;2022-08-21T10:18:30;5.45;;;1.45;;
71734;SDS011;59577;52.122;5.406;2022-08-21T10:27:02;6.47;;;1.60;;
71734;SDS011;59577;52.122;5.406;2022-08-21T10:32:29;3.60;;;1.10;;
71734;SDS011;59577;52.122;5.406;2022-08-21T10:35:14;5.90;;;1.45;;
71734;SDS011;59577;52.122;5.406;2022-08-21T10:38:17;6.00;;;1.37;;
71734;SDS011;59577;52.122;5.406;2022-08-21T10:41:35;6.05;;;1.20;;
71734;SDS011;59577;52.122;5.406;2022-08-21T10:44:12;5.70;;;1.20;;
71734;SDS011;59577;52.122;5.406;2022-08-21T10:46:54;6.18;;;1.58;;
71734;SDS011;59577;52.122;5.406;2022-08-21T10:55:21;4.85;;;1.13;;
71734;SDS011;59577;52.122;5.406;2022-08-21T10:57:58;3.55;;;1.42;;
71734;SDS011;59577;52.122;5.406;2022-08-21T11:00:49;5.32;;;1.73;;
71734;SDS011;59577;52.122;5.406;2022-08-21T11:05:59;4.03;;;1.17;;
71734;SDS011;59577;52.122;5.406;2022-08-21T11:08:39;3.95;;;1.27;;
71734;SDS011;59577;52.122;5.406;2022-08-21T11:16:41;3.63;;;1.55;;
71734;SDS011;59577;52.122;5.406;2022-08-21T11:27:45;6.30;;;1.17;;
71734;SDS011;59577;52.122;5.406;2022-08-21T11:30:16;3.40;;;1.30;;
71734;SDS011;59577;52.122;5.406;2022-08-21T11:35:48;7.78;;;1.30;;
71734;SDS011;59577;52.122;5.406;2022-08-21T11:43:41;3.70;;;1.10;;
71734;SDS011;59577;52.122;5.406;2022-08-21T11:54:22;3.67;;;1.20;;
71734;SDS011;59577;52.122;5.406;2022-08-21T11:57:14;7.85;;;1.40;;
71734;SDS011;59577;52.122;5.406;2022-08-21T11:59:51;3.27;;;0.93;;
71734;SDS011;59577;52.122;5.406;2022-08-21T12:02:23;4.13;;;1.17;;
71734;SDS011;59577;52.122;5.406;2022-08-21T12:04:55;4.72;;;1.40;;
71734;SDS011;59577;52.122;5.406;2022-08-21T12:10:04;3.17;;;1.25;;
71734;SDS011;59577;52.122;5.406;2022-08-21T12:12:36;3.33;;;1.30;;
71734;SDS011;59577;52.122;5.406;2022-08-21T12:17:41;3.22;;;1.27;;
71734;SDS011;59577;52.122;5.406;2022-08-21T12:23:24;3.17;;;1.20;;
71734;SDS011;59577;52.122;5.406;2022-08-21T12:25:59;4.93;;;1.10;;
71734;SDS011;59577;52.122;5.406;2022-08-21T12:28:27;4.47;;;1.10;;
71734;SDS011;59577;52.122;5.406;2022-08-21T12:30:56;6.30;;;1.33;;
71734;SDS011;59577;52.122;5.406;2022-08-21T12:36:01;3.63;;;1.13;;
71734;SDS011;59577;52.122;5.406;2022-08-21T12:38:45;6.33;;;1.20;;
71734;SDS011;59577;52.122;5.406;2022-08-21T12:41:19;6.68;;;1.23;;
71734;SDS011;59577;52.122;5.406;2022-08-21T12:43:52;6.13;;;1.30;;
71734;SDS011;59577;52.122;5.406;2022-08-21T12:46:31;3.05;;;1.00;;
71734;SDS011;59577;52.122;5.406;2022-08-21T12:49:08;3.95;;;0.90;;
71734;SDS011;59577;52.122;5.406;2022-08-21T12:51:55;3.47;;;0.70;;
71734;SDS011;59577;52.122;5.406;2022-08-21T12:54:28;3.13;;;0.80;;
71734;SDS011;59577;52.122;5.406;2022-08-21T12:57:08;3.10;;;0.90;;
71734;SDS011;59577;52.122;5.406;2022-08-21T12:59:43;4.13;;;1.00;;
71734;SDS011;59577;52.122;5.406;2022-08-21T13:02:15;2.75;;;1.00;;
71734;SDS011;59577;52.122;5.406;2022-08-21T13:04:45;3.63;;;1.00;;
71734;SDS011;59577;52.122;5.406;2022-08-21T13:07:15;3.00;;;1.08;;
71734;SDS011;59577;52.122;5.406;2022-08-21T13:09:59;4.50;;;1.52;;
71734;SDS011;59577;52.122;5.406;2022-08-21T13:12:27;3.47;;;0.95;;
71734;SDS011;59577;52.122;5.406;2022-08-21T13:14:58;3.20;;;1.02;;
71734;SDS011;59577;52.122;5.406;2022-08-21T13:17:34;2.47;;;0.70;;
71734;SDS011;59577;52.122;5.406;2022-08-21T13:20:18;4.75;;;1.00;;
71734;SDS011;59577;52.122;5.406;2022-08-21T13:22:48;3.75;;;0.90;;
71734;SDS011;59577;52.122;5.406;2022-08-21T13:25:15;4.13;;;1.27;;
71734;SDS011;59577;52.122;5.406;2022-08-21T13:27:45;5.35;;;1.05;;
71734;SDS011;59577;52.122;5.406;2022-08-21T13:30:24;2.97;;;0.70;;
71734;SDS011;59577;52.122;5.406;2022-08-21T13:32:52;1.95;;;1.00;;
71734;SDS011;59577;52.122;5.406;2022-08-21T13:37:56;3.80;;;0.80;;
71734;SDS011;59577;52.122;5.406;2022-08-21T13:40:29;5.13;;;1.40;;
71734;SDS011;59577;52.122;5.406;2022-08-21T13:42:59;4.27;;;0.97;;
71734;SDS011;59577;52.122;5.406;2022-08-21T13:45:29;6.00;;;1.10;;
71734;SDS011;59577;52.122;5.406;2022-08-21T13:47:57;3.45;;;1.00;;
71734;SDS011;59577;52.122;5.406;2022-08-21T13:50:31;5.40;;;1.30;;
71734;SDS011;59577;52.122;5.406;2022-08-21T13:53:05;6.32;;;1.38;;
71734;SDS011;59577;52.122;5.406;2022-08-21T13:55:35;3.93;;;1.00;;
71734;SDS011;59577;52.122;5.406;2022-08-21T13:58:23;3.17;;;1.10;;
71734;SDS011;59577;52.122;5.406;2022-08-21T14:00:54;4.15;;;1.00;;
71734;SDS011;59577;52.122;5.406;2022-08-21T14:06:00;5.43;;;0.80;;
71734;SDS011;59577;52.122;5.406;2022-08-21T14:11:02;3.15;;;0.95;;
71734;SDS011;59577;52.122;5.406;2022-08-21T14:13:41;7.85;;;1.20;;
71734;SDS011;59577;52.122;5.406;2022-08-21T14:16:17;3.75;;;0.75;;
71734;SDS011;59577;52.122;5.406;2022-08-21T14:18:50;3.15;;;0.88;;
71734;SDS011;59577;52.122;5.406;2022-08-21T14:21:51;3.50;;;0.97;;
71734;SDS011;59577;52.122;5.406;2022-08-21T14:24:12;4.57;;;1.17;;
71734;SDS011;59577;52.122;5.406;2022-08-21T14:27:05;4.55;;;0.82;;
71734;SDS011;59577;52.122;5.406;2022-08-21T14:29:34;2.83;;;0.77;;
71734;SDS011;59577;52.122;5.406;2022-08-21T14:32:12;5.25;;;1.23;;
71734;SDS011;59577;52.122;5.406;2022-08-21T14:34:50;6.47;;;1.13;;
71734;SDS011;59577;52.122;5.406;2022-08-21T14:37:17;2.33;;;0.93;;
71734;SDS011;59577;52.122;5.406;2022-08-21T14:39:43;3.97;;;0.88;;
71734;SDS011;59577;52.122;5.406;2022-08-21T14:42:11;4.97;;;1.02;;
71734;SDS011;59577;52.122;5.406;2022-08-21T14:44:39;2.28;;;0.63;;
71734;SDS011;59577;52.122;5.406;2022-08-21T14:47:05;3.27;;;0.97;;
71734;SDS011;59577;52.122;5.406;2022-08-21T14:49:32;2.15;;;0.90;;
71734;SDS011;59577;52.122;5.406;2022-08-21T14:51:58;3.47;;;0.82;;
71734;SDS011;59577;52.122;5.406;2022-08-21T14:54:26;3.78;;;0.88;;
71734;SDS011;59577;52.122;5.406;2022-08-21T14:56:58;6.03;;;0.88;;
71734;SDS011;59577;52.122;5.406;2022-08-21T14:59:27;3.13;;;0.80;;
71734;SDS011;59577;52.122;5.406;2022-08-21T15:01:54;4.03;;;1.05;;
71734;SDS011;59577;52.122;5.406;2022-08-21T15:04:22;3.58;;;0.90;;
71734;SDS011;59577;52.122;5.406;2022-08-21T15:06:48;2.15;;;0.90;;
71734;SDS011;59577;52.122;5.406;2022-08-21T15:09:15;2.60;;;0.85;;
71734;SDS011;59577;52.122;5.406;2022-08-21T15:11:42;2.00;;;0.90;;
71734;SDS011;59577;52.122;5.406;2022-08-21T15:14:11;4.90;;;1.10;;
71734;SDS011;59577;52.122;5.406;2022-08-21T15:16:43;6.47;;;1.20;;
71734;SDS011;59577;52.122;5.406;2022-08-21T15:19:10;1.30;;;0.70;;
71734;SDS011;59577;52.122;5.406;2022-08-21T15:21:36;3.25;;;1.00;;
71734;SDS011;59577;52.122;5.406;2022-08-21T15:24:03;5.97;;;0.97;;
71734;SDS011;59577;52.122;5.406;2022-08-21T15:26:30;4.57;;;0.82;;
71734;SDS011;59577;52.122;5.406;2022-08-21T15:28:56;4.28;;;1.10;;
71734;SDS011;59577;52.122;5.406;2022-08-21T15:31:25;3.53;;;0.90;;
71734;SDS011;59577;52.122;5.406;2022-08-21T15:33:52;4.07;;;0.68;;
71734;SDS011;59577;52.122;5.406;2022-08-21T15:36:19;3.40;;;0.60;;
71734;SDS011;59577;52.122;5.406;2022-08-21T15:38:45;2.80;;;0.70;;
71734;SDS011;59577;52.122;5.406;2022-08-21T15:41:12;7.50;;;1.00;;
71734;SDS011;59577;52.122;5.406;2022-08-21T15:43:46;9.15;;;1.42;;
71734;SDS011;59577;52.122;5.406;2022-08-21T15:46:17;3.05;;;0.98;;
71734;SDS011;59577;52.122;5.406;2022-08-21T15:48:46;4.93;;;0.90;;
71734;SDS011;59577;52.122;5.406;2022-08-21T15:51:13;3.95;;;1.00;;
71734;SDS011;59577;52.122;5.406;2022-08-21T15:53:40;2.50;;;0.65;;
71734;SDS011;59577;52.122;5.406;2022-08-21T15:56:14;3.65;;;0.80;;
71734;SDS011;59577;52.122;5.406;2022-08-21T15:58:52;2.35;;;0.80;;
71734;SDS011;59577;52.122;5.406;2022-08-21T16:01:23;5.37;;;0.80;;
71734;SDS011;59577;52.122;5.406;2022-08-21T16:03:50;5.93;;;0.80;;
71734;SDS011;59577;52.122;5.406;2022-08-21T16:06:19;6.20;;;0.77;;
71734;SDS011;59577;52.122;5.406;2022-08-21T16:09:06;3.08;;;0.80;;
71734;SDS011;59577;52.122;5.406;2022-08-21T16:11:32;4.22;;;0.85;;
71734;SDS011;59577;52.122;5.406;2022-08-21T16:13:59;3.80;;;0.70;;
71734;SDS011;59577;52.122;5.406;2022-08-21T16:16:25;2.78;;;0.60;;
71734;SDS011;59577;52.122;5.406;2022-08-21T16:18:56;5.55;;;0.75;;
71734;SDS011;59577;52.122;5.406;2022-08-21T16:21:23;4.75;;;0.80;;
71734;SDS011;59577;52.122;5.406;2022-08-21T16:23:49;4.07;;;0.73;;
71734;SDS011;59577;52.122;5.406;2022-08-21T16:26:16;2.70;;;0.70;;
71734;SDS011;59577;52.122;5.406;2022-08-21T16:28:44;3.53;;;0.70;;
71734;SDS011;59577;52.122;5.406;2022-08-21T16:31:13;3.30;;;0.65;;
71734;SDS011;59577;52.122;5.406;2022-08-21T16:33:41;3.22;;;0.50;;